Terminal Aerodrome Forecast
Issued by NWS

Home | Current Version | Previous Version | Text Only | Print | Product List | Glossary On
Versions: 1 2 3 4 5 6 7 8 9 10 11 12 13 14 15 16 17 18 19 20 21
449
FTUS43 KJKL 281133
TAFSME
TAF
KSME 281133Z 2812/2912 VRB03KT P6SM SCT250
     FM281800 23006KT P6SM VCTS SCT040CB
     FM290000 VRB03KT P6SM SCT050
     FM290900 00000KT 2SM BR BKN050=

USA.gov is the U.S. government's official web portal to all federal, state and local government web resources and services.